createdAt,value
2023-01-07T00:01:27.776Z,1.40
2023-01-07T00:03:57.250Z,1.10
2023-01-07T00:06:30.490Z,1.25
2023-01-07T00:08:58.447Z,0.95
2023-01-07T00:11:34.495Z,0.73
2023-01-07T00:14:03.999Z,0.68
2023-01-07T00:16:32.919Z,2.33
2023-01-07T00:19:01.555Z,1.20
2023-01-07T00:21:29.675Z,0.93
2023-01-07T00:24:02.205Z,1.15
2023-01-07T00:26:32.899Z,0.95
2023-01-07T00:29:00.412Z,0.93
2023-01-07T00:31:31.133Z,2.38
2023-01-07T00:34:08.953Z,0.80
2023-01-07T00:36:46.285Z,1.00
2023-01-07T00:39:15.255Z,1.15
2023-01-07T00:42:05.807Z,0.88
2023-01-07T00:44:33.670Z,1.05
2023-01-07T00:47:01.517Z,0.40
2023-01-07T00:49:29.129Z,0.90
2023-01-07T00:51:56.764Z,1.08
2023-01-07T00:54:25.324Z,0.38
2023-01-07T00:56:52.716Z,1.38
2023-01-07T00:59:20.515Z,0.55
2023-01-07T01:01:48.189Z,0.40
2023-01-07T01:04:16.726Z,0.68
2023-01-07T01:06:44.368Z,0.30
2023-01-07T01:09:12.271Z,3.88
2023-01-07T01:11:42.106Z,1.65
2023-01-07T01:14:11.217Z,0.63
2023-01-07T01:16:38.692Z,2.83
2023-01-07T01:19:06.066Z,1.23
2023-01-07T01:21:33.408Z,1.00
2023-01-07T01:24:00.798Z,2.53
2023-01-07T01:26:28.158Z,0.73
2023-01-07T01:28:55.479Z,1.05
2023-01-07T01:31:25.356Z,1.92
2023-01-07T01:33:55.509Z,1.23
2023-01-07T01:36:24.468Z,1.38
2023-01-07T01:38:53.898Z,0.50
2023-01-07T01:41:22.037Z,1.05
2023-01-07T01:43:51.939Z,0.75
2023-01-07T01:46:45.109Z,1.00
2023-01-07T01:49:27.704Z,2.10
2023-01-07T01:52:02.054Z,0.73
2023-01-07T01:54:29.906Z,1.40
2023-01-07T01:57:05.047Z,0.85
2023-01-07T01:59:37.879Z,0.82
2023-01-07T02:02:09.558Z,0.50
2023-01-07T02:04:37.999Z,0.63
2023-01-07T02:07:09.763Z,1.02
2023-01-07T02:09:41.618Z,0.80
2023-01-07T02:12:46.180Z,1.23
2023-01-07T02:16:05.519Z,1.23
2023-01-07T02:18:55.416Z,0.68
2023-01-07T02:22:00.720Z,2.28
2023-01-07T02:25:14.281Z,0.47
2023-01-07T02:28:30.121Z,1.17
2023-01-07T02:31:36.032Z,6.32
2023-01-07T02:34:21.751Z,0.70
2023-01-07T02:37:17.323Z,1.02
2023-01-07T02:39:58.075Z,0.85
2023-01-07T02:42:42.558Z,0.63
2023-01-07T02:45:23.647Z,1.00
2023-01-07T02:47:59.746Z,0.47
2023-01-07T02:50:27.282Z,1.80
2023-01-07T02:52:54.597Z,1.00
2023-01-07T02:55:33.479Z,0.82
2023-01-07T02:58:33.168Z,0.82
2023-01-07T03:01:28.690Z,0.40
2023-01-07T03:04:42.480Z,0.75
2023-01-07T03:07:36.033Z,1.05
2023-01-07T03:10:19.298Z,0.95
2023-01-07T03:12:54.767Z,0.63
2023-01-07T03:15:36.642Z,0.50
2023-01-07T03:18:10.479Z,1.02
2023-01-07T03:20:40.132Z,0.70
2023-01-07T03:23:11.203Z,0.20
2023-01-07T03:25:43.809Z,0.47
2023-01-07T03:28:16.011Z,0.63
2023-01-07T03:30:44.715Z,0.85
2023-01-07T03:33:42.662Z,0.25
2023-01-07T03:36:12.977Z,1.27
2023-01-07T03:38:43.332Z,0.30
2023-01-07T03:43:59.729Z,0.20
2023-01-07T03:46:27.944Z,0.32
2023-01-07T03:48:55.948Z,0.47
2023-01-07T03:51:24.627Z,0.10
2023-01-07T03:53:52.505Z,0.10
2023-01-07T03:56:20.019Z,0.90
2023-01-07T03:58:47.434Z,1.10
2023-01-07T04:01:14.975Z,0.30
2023-01-07T04:03:42.430Z,0.22
2023-01-07T04:06:10.029Z,0.75
2023-01-07T04:08:38.069Z,0.30
2023-01-07T04:11:06.331Z,0.28
2023-01-07T04:13:34.392Z,0.25
2023-01-07T04:16:01.775Z,0.10
2023-01-07T04:18:29.479Z,0.10
2023-01-07T04:20:56.849Z,0.28
2023-01-07T04:23:24.177Z,0.15
2023-01-07T04:25:53.545Z,0.20
2023-01-07T04:28:23.985Z,0.50
2023-01-07T04:30:51.965Z,0.20
2023-01-07T04:33:19.833Z,0.77
2023-01-07T04:35:48.637Z,0.10
2023-01-07T04:38:16.791Z,0.40
2023-01-07T04:40:45.029Z,1.50
2023-01-07T04:43:13.257Z,0.52
2023-01-07T04:45:40.792Z,0.20
2023-01-07T04:48:09.040Z,0.50
2023-01-07T04:50:36.492Z,0.68
2023-01-07T04:53:04.059Z,0.22
2023-01-07T04:55:32.108Z,0.20
2023-01-07T04:57:59.614Z,0.10
2023-01-07T05:00:28.345Z,0.20
2023-01-07T05:02:57.373Z,0.30
2023-01-07T05:05:24.882Z,0.40
2023-01-07T05:07:54.368Z,0.68
2023-01-07T05:10:23.646Z,0.00
2023-01-07T05:12:52.400Z,0.20
2023-01-07T05:15:20.172Z,0.22
2023-01-07T05:17:49.171Z,0.20
2023-01-07T05:20:16.899Z,0.25
2023-01-07T05:22:45.003Z,0.35
2023-01-07T05:25:12.850Z,0.25
2023-01-07T05:27:40.258Z,0.90
2023-01-07T05:30:10.661Z,0.10
2023-01-07T05:32:38.245Z,0.20
2023-01-07T05:35:06.220Z,0.28
2023-01-07T05:37:34.255Z,0.15
2023-01-07T05:40:03.275Z,0.10
2023-01-07T05:42:31.178Z,0.45
2023-01-07T05:44:58.711Z,0.20
2023-01-07T05:47:26.079Z,0.35
2023-01-07T05:49:53.463Z,0.65
2023-01-07T05:52:20.738Z,0.90
2023-01-07T05:54:48.204Z,0.80
2023-01-07T05:57:15.620Z,0.50
2023-01-07T05:59:42.969Z,0.50
2023-01-07T06:02:10.274Z,0.30
2023-01-07T06:04:37.676Z,0.10
2023-01-07T06:07:04.990Z,0.50
2023-01-07T06:09:32.304Z,0.52
2023-01-07T06:11:59.652Z,1.67
2023-01-07T06:14:27.031Z,2.83
2023-01-07T06:16:54.367Z,0.82
2023-01-07T06:19:22.992Z,1.23
2023-01-07T06:21:50.428Z,0.77
2023-01-07T06:24:18.077Z,0.75
2023-01-07T06:26:45.442Z,1.02
2023-01-07T06:29:12.869Z,1.15
2023-01-07T06:31:40.380Z,0.73
2023-01-07T06:34:08.096Z,0.75
2023-01-07T06:36:35.510Z,0.88
2023-01-07T06:39:02.972Z,0.70
2023-01-07T06:41:30.229Z,1.70
2023-01-07T06:43:57.651Z,0.98
2023-01-07T06:46:25.350Z,1.25
2023-01-07T06:48:52.750Z,2.72
2023-01-07T06:51:20.037Z,0.47
2023-01-07T06:53:47.398Z,1.58
2023-01-07T06:56:14.724Z,0.88
2023-01-07T06:58:42.092Z,1.00
2023-01-07T07:01:09.674Z,2.28
2023-01-07T07:03:37.143Z,1.42
2023-01-07T07:06:05.282Z,3.03
2023-01-07T07:08:32.692Z,1.63
2023-01-07T07:11:00.021Z,1.85
2023-01-07T07:13:27.403Z,1.05
2023-01-07T07:15:54.886Z,1.92
2023-01-07T07:18:22.345Z,0.70
2023-01-07T07:20:49.956Z,0.45
2023-01-07T07:23:17.478Z,1.67
2023-01-07T07:25:45.131Z,0.43
2023-01-07T07:28:12.528Z,0.60
2023-01-07T07:30:45.608Z,1.23
2023-01-07T07:33:19.098Z,0.47
2023-01-07T07:35:47.491Z,0.60
2023-01-07T07:38:16.429Z,0.93
2023-01-07T07:40:43.890Z,0.50
2023-01-07T07:43:13.080Z,0.63
2023-01-07T07:45:41.431Z,0.40
2023-01-07T07:48:09.805Z,0.40
2023-01-07T07:50:37.554Z,0.50
2023-01-07T07:53:05.173Z,0.47
2023-01-07T07:55:32.466Z,1.10
2023-01-07T07:57:59.811Z,0.70
2023-01-07T08:00:27.282Z,1.10
2023-01-07T08:02:58.522Z,0.10
2023-01-07T08:05:26.424Z,0.82
2023-01-07T08:07:54.233Z,1.05
2023-01-07T08:10:21.719Z,0.90
2023-01-07T08:12:50.714Z,2.47
2023-01-07T08:15:18.374Z,0.57
2023-01-07T08:17:45.811Z,0.98
2023-01-07T08:20:13.368Z,0.95
2023-01-07T08:22:40.894Z,0.88
2023-01-07T08:25:08.787Z,0.68
2023-01-07T08:27:36.150Z,1.00
2023-01-07T08:30:03.946Z,0.98
2023-01-07T08:32:31.302Z,1.15
2023-01-07T08:34:58.641Z,0.55
2023-01-07T08:37:26.196Z,2.25
2023-01-07T08:39:53.472Z,1.10
2023-01-07T08:42:21.067Z,1.27
2023-01-07T08:44:48.444Z,0.77
2023-01-07T08:47:15.775Z,0.57
2023-01-07T08:49:43.129Z,1.45
2023-01-07T08:52:10.644Z,1.10
2023-01-07T08:54:38.206Z,1.08
2023-01-07T08:57:05.684Z,0.80
2023-01-07T08:59:33.052Z,0.70
2023-01-07T09:02:00.567Z,1.15
2023-01-07T09:04:28.216Z,1.15
2023-01-07T09:06:57.042Z,3.67
2023-01-07T09:09:24.573Z,1.08
2023-01-07T09:11:51.858Z,2.22
2023-01-07T09:14:19.215Z,1.77
2023-01-07T09:16:46.650Z,1.63
2023-01-07T09:19:14.060Z,2.38
2023-01-07T09:21:41.474Z,2.80
2023-01-07T09:24:09.078Z,3.20
2023-01-07T09:26:36.582Z,2.42
2023-01-07T09:29:04.203Z,3.38
2023-01-07T09:31:31.602Z,4.70
2023-01-07T09:33:59.047Z,7.70
2023-01-07T09:36:27.149Z,7.40
2023-01-07T09:38:54.812Z,2.60
2023-01-07T09:41:39.008Z,2.58
2023-01-07T09:44:44.960Z,2.17
2023-01-07T09:47:14.847Z,1.98
2023-01-07T09:49:44.721Z,2.08
2023-01-07T09:52:17.874Z,1.52
2023-01-07T09:54:49.929Z,1.55
2023-01-07T09:59:45.817Z,1.42
2023-01-07T10:02:34.103Z,1.92
2023-01-07T10:05:34.128Z,1.30
2023-01-07T10:08:47.965Z,1.45
2023-01-07T10:11:42.396Z,3.10
2023-01-07T10:14:58.551Z,3.35
2023-01-07T10:17:55.818Z,2.20
2023-01-07T10:20:42.812Z,3.03
2023-01-07T10:23:18.786Z,1.27
2023-01-07T10:25:50.647Z,1.33
2023-01-07T10:28:27.213Z,1.55
2023-01-07T10:30:54.607Z,1.73
2023-01-07T10:33:25.645Z,3.15
2023-01-07T10:36:30.385Z,1.73
2023-01-07T10:39:16.229Z,1.95
2023-01-07T10:42:11.982Z,4.03
2023-01-07T10:45:17.076Z,2.90
2023-01-07T10:48:14.073Z,1.40
2023-01-07T10:51:36.773Z,2.50
2023-01-07T10:54:40.386Z,1.42
2023-01-07T10:57:18.509Z,1.05
2023-01-07T10:59:51.161Z,1.17
2023-01-07T11:02:21.782Z,3.08
2023-01-07T11:04:49.395Z,2.20
2023-01-07T11:08:01.854Z,1.55
2023-01-07T11:10:33.304Z,2.55
2023-01-07T11:13:12.634Z,1.30
2023-01-07T11:15:50.212Z,1.52
2023-01-07T11:18:26.440Z,2.35
2023-01-07T11:20:58.914Z,2.08
2023-01-07T11:23:52.379Z,1.83
2023-01-07T11:26:32.611Z,1.30
2023-01-07T11:29:38.176Z,2.63
2023-01-07T11:32:14.869Z,2.78
2023-01-07T11:34:57.094Z,4.55
2023-01-07T11:40:27.137Z,3.45
2023-01-07T11:43:18.903Z,2.63
2023-01-07T11:46:19.906Z,1.92
2023-01-07T11:48:46.920Z,3.75
2023-01-07T11:51:14.315Z,2.75
2023-01-07T11:53:55.617Z,2.63
2023-01-07T11:56:34.467Z,2.87
2023-01-07T11:59:27.676Z,1.90
2023-01-07T12:01:59.462Z,4.40
2023-01-07T12:04:30.526Z,1.80
2023-01-07T12:07:01.544Z,4.03
2023-01-07T12:09:47.171Z,2.37
2023-01-07T12:12:39.434Z,3.67
2023-01-07T12:18:02.234Z,1.73
2023-01-07T12:21:16.269Z,2.38
2023-01-07T12:23:51.616Z,1.63
2023-01-07T12:26:56.986Z,1.20
2023-01-07T12:29:57.443Z,0.35
2023-01-07T12:32:50.398Z,0.52
2023-01-07T12:35:32.208Z,0.43
2023-01-07T12:38:19.711Z,0.50
2023-01-07T12:40:58.592Z,0.47
2023-01-07T12:43:34.852Z,0.88
2023-01-07T12:46:07.517Z,0.47
2023-01-07T12:49:07.973Z,0.17
2023-01-07T12:51:58.197Z,0.73
2023-01-07T12:55:02.416Z,0.40
2023-01-07T12:57:34.879Z,0.30
2023-01-07T13:00:11.201Z,0.20
2023-01-07T13:03:11.184Z,0.20
2023-01-07T13:05:52.135Z,0.38
2023-01-07T13:08:43.438Z,1.23
2023-01-07T13:11:43.216Z,1.10
2023-01-07T13:14:21.655Z,0.45
2023-01-07T13:16:49.399Z,3.38
2023-01-07T13:19:17.302Z,2.33
2023-01-07T13:21:48.295Z,0.32
2023-01-07T13:24:55.898Z,0.60
2023-01-07T13:27:34.779Z,0.50
2023-01-07T13:30:32.015Z,0.30
2023-01-07T13:33:28.797Z,0.40
2023-01-07T13:36:28.434Z,0.60
2023-01-07T13:39:10.133Z,0.52
2023-01-07T13:42:27.542Z,0.20
2023-01-07T13:45:02.952Z,0.30
2023-01-07T13:47:47.038Z,0.22
2023-01-07T13:50:22.894Z,1.02
2023-01-07T13:53:02.020Z,1.73
2023-01-07T13:55:35.718Z,0.70
2023-01-07T13:58:24.550Z,0.43
2023-01-07T14:01:06.653Z,0.77
2023-01-07T14:06:43.276Z,0.88
2023-01-07T14:09:21.065Z,0.20
2023-01-07T14:12:16.263Z,0.32
2023-01-07T14:15:06.724Z,0.10
2023-01-07T14:18:02.731Z,0.40
2023-01-07T14:20:48.731Z,1.55
2023-01-07T14:23:44.199Z,0.43
2023-01-07T14:26:34.421Z,0.30
2023-01-07T14:29:24.351Z,0.60
2023-01-07T14:32:24.289Z,2.40
2023-01-07T14:35:28.567Z,0.80
2023-01-07T14:37:55.896Z,1.33
2023-01-07T14:41:01.320Z,1.90
2023-01-07T14:44:02.494Z,2.30
2023-01-07T14:46:56.218Z,2.03
2023-01-07T14:49:46.521Z,1.13
2023-01-07T14:52:38.537Z,2.20
2023-01-07T14:55:34.297Z,1.27
2023-01-07T14:58:35.825Z,2.08
2023-01-07T15:01:28.359Z,2.92
2023-01-07T15:04:45.841Z,1.60
2023-01-07T15:07:21.325Z,2.17
2023-01-07T15:10:15.451Z,4.70
2023-01-07T15:13:03.492Z,4.30
2023-01-07T15:15:55.021Z,5.55
2023-01-07T15:18:23.051Z,4.95
2023-01-07T15:21:18.854Z,4.68
2023-01-07T15:24:24.501Z,2.95
2023-01-07T15:27:29.797Z,2.33
2023-01-07T15:30:12.331Z,1.83
2023-01-07T15:33:04.124Z,1.15
2023-01-07T15:35:40.637Z,1.55
2023-01-07T15:38:49.511Z,1.33
2023-01-07T15:41:38.661Z,0.95
2023-01-07T15:44:15.852Z,1.52
2023-01-07T15:46:43.320Z,1.08
2023-01-07T15:49:22.794Z,2.03
2023-01-07T15:51:56.849Z,3.28
2023-01-07T15:54:34.935Z,2.58
2023-01-07T15:57:15.175Z,5.43
2023-01-07T15:59:49.216Z,1.45
2023-01-07T16:02:32.483Z,2.83
2023-01-07T16:05:02.079Z,2.95
2023-01-07T16:07:54.570Z,1.98
2023-01-07T16:12:57.245Z,2.95
2023-01-07T16:15:36.013Z,2.47
2023-01-07T16:18:32.543Z,2.90
2023-01-07T16:21:04.964Z,2.50
2023-01-07T16:23:34.997Z,1.85
2023-01-07T16:26:09.319Z,2.90
2023-01-07T16:28:40.554Z,3.35
2023-01-07T16:31:12.089Z,3.05
2023-01-07T16:33:41.095Z,3.33
2023-01-07T16:36:17.610Z,4.70
2023-01-07T16:38:47.923Z,4.72
2023-01-07T16:41:27.715Z,3.85
2023-01-07T16:43:57.199Z,4.85
2023-01-07T16:46:30.319Z,2.63
2023-01-07T16:49:21.701Z,4.82
2023-01-07T16:52:16.626Z,4.55
2023-01-07T16:54:45.426Z,4.63
2023-01-07T16:57:33.028Z,3.35
2023-01-07T17:00:04.157Z,4.75
2023-01-07T17:02:40.451Z,5.90
2023-01-07T17:05:34.316Z,5.18
2023-01-07T17:08:05.670Z,4.38
2023-01-07T17:10:38.634Z,3.17
2023-01-07T17:13:33.703Z,4.43
2023-01-07T17:16:36.884Z,5.15
2023-01-07T17:19:25.717Z,3.40
2023-01-07T17:21:54.028Z,4.30
2023-01-07T17:24:42.686Z,5.28
2023-01-07T17:27:26.699Z,5.13
2023-01-07T17:29:54.897Z,5.53
2023-01-07T17:32:24.837Z,5.70
2023-01-07T17:34:52.180Z,9.00
2023-01-07T17:37:19.707Z,10.07
2023-01-07T17:39:46.996Z,7.80
2023-01-07T17:42:39.812Z,7.82
2023-01-07T17:45:08.481Z,8.40
2023-01-07T17:47:35.868Z,9.32
2023-01-07T17:50:03.350Z,7.75
2023-01-07T17:52:31.148Z,7.53
2023-01-07T17:54:58.461Z,8.17
2023-01-07T17:57:25.891Z,12.93
2023-01-07T17:59:53.243Z,9.05
2023-01-07T18:02:25.775Z,8.50
2023-01-07T18:04:53.156Z,6.97
2023-01-07T18:07:20.504Z,11.27
2023-01-07T18:09:47.828Z,13.30
2023-01-07T18:12:30.246Z,8.97
2023-01-07T18:14:59.541Z,8.87
2023-01-07T18:17:27.822Z,9.37
2023-01-07T18:19:55.512Z,12.17
2023-01-07T18:22:23.946Z,10.53
2023-01-07T18:24:52.699Z,11.57
2023-01-07T18:27:20.324Z,12.93
2023-01-07T18:29:47.730Z,10.63
2023-01-07T18:32:15.124Z,9.70
2023-01-07T18:34:42.439Z,12.50
2023-01-07T18:37:09.959Z,11.13
2023-01-07T18:39:37.369Z,10.23
2023-01-07T18:42:04.874Z,11.07
2023-01-07T18:44:32.610Z,9.97
2023-01-07T18:47:00.004Z,9.60
2023-01-07T18:49:27.291Z,13.57
2023-01-07T18:51:54.731Z,11.17
2023-01-07T18:54:22.052Z,10.43
2023-01-07T18:56:49.403Z,12.70
2023-01-07T18:59:16.715Z,13.83
2023-01-07T19:01:44.225Z,8.90
2023-01-07T19:04:11.718Z,11.77
2023-01-07T19:06:39.171Z,13.17
2023-01-07T19:09:06.479Z,12.50
2023-01-07T19:11:33.929Z,13.70
2023-01-07T19:14:01.600Z,12.00
2023-01-07T19:16:29.021Z,13.77
2023-01-07T19:18:56.406Z,9.87
2023-01-07T19:21:24.035Z,15.33
2023-01-07T19:23:51.415Z,11.60
2023-01-07T19:26:19.243Z,15.63
2023-01-07T19:28:47.286Z,12.53
2023-01-07T19:31:14.667Z,14.90
2023-01-07T19:33:42.016Z,25.23
2023-01-07T19:36:11.693Z,23.93
2023-01-07T19:38:44.763Z,20.67
2023-01-07T19:41:14.944Z,19.07
2023-01-07T19:43:43.086Z,18.00
2023-01-07T19:46:11.416Z,18.67
2023-01-07T19:48:38.944Z,21.90
2023-01-07T19:51:07.515Z,21.13
2023-01-07T19:53:35.511Z,18.07
2023-01-07T19:56:05.700Z,21.63
2023-01-07T19:58:33.808Z,17.60
2023-01-07T20:01:13.096Z,17.90
2023-01-07T20:03:40.699Z,19.33
2023-01-07T20:06:15.971Z,16.00
2023-01-07T20:08:43.590Z,19.80
2023-01-07T20:11:11.716Z,17.17
2023-01-07T20:13:39.971Z,16.47
2023-01-07T20:16:13.017Z,17.17
2023-01-07T20:18:45.616Z,14.80
2023-01-07T20:21:15.165Z,14.10
2023-01-07T20:23:43.289Z,20.03
2023-01-07T20:26:15.163Z,15.80
2023-01-07T20:28:42.863Z,18.73
2023-01-07T20:31:13.660Z,18.93
2023-01-07T20:33:41.756Z,16.67
2023-01-07T20:36:12.311Z,12.37
2023-01-07T20:38:40.241Z,15.77
2023-01-07T20:41:15.896Z,17.53
2023-01-07T20:43:43.451Z,17.63
2023-01-07T20:46:11.296Z,12.37
2023-01-07T20:48:38.713Z,12.17
2023-01-07T20:51:07.784Z,15.97
2023-01-07T20:53:36.767Z,10.50
2023-01-07T20:56:05.129Z,15.93
2023-01-07T20:58:37.291Z,9.60
2023-01-07T21:03:33.628Z,8.77
2023-01-07T21:06:01.443Z,9.93
2023-01-07T21:08:28.892Z,10.80
2023-01-07T21:10:56.314Z,11.13
2023-01-07T21:13:24.295Z,9.53
2023-01-07T21:15:52.586Z,12.97
2023-01-07T21:18:20.302Z,12.80
2023-01-07T21:20:48.087Z,11.40
2023-01-07T21:23:15.430Z,9.00
2023-01-07T21:25:48.131Z,10.20
2023-01-07T21:28:15.960Z,10.03
2023-01-07T21:30:43.343Z,11.37
2023-01-07T21:33:10.649Z,14.53
2023-01-07T21:35:41.889Z,14.20
2023-01-07T21:38:09.321Z,14.65
2023-01-07T21:40:39.319Z,13.13
2023-01-07T21:43:06.673Z,11.67
2023-01-07T21:45:34.121Z,13.10
2023-01-07T21:48:01.505Z,10.00
2023-01-07T21:50:29.040Z,11.27
2023-01-07T21:52:56.469Z,14.70
2023-01-07T21:55:23.974Z,12.20
2023-01-07T21:57:51.385Z,12.60
2023-01-07T22:00:18.775Z,12.40
2023-01-07T22:02:46.121Z,12.63
2023-01-07T22:05:13.482Z,16.43
2023-01-07T22:07:40.824Z,13.77
2023-01-07T22:10:09.296Z,13.73
2023-01-07T22:12:36.613Z,14.93
2023-01-07T22:15:04.377Z,12.27
2023-01-07T22:17:31.752Z,13.57
2023-01-07T22:19:59.101Z,11.97
2023-01-07T22:22:26.444Z,16.97
2023-01-07T22:24:53.855Z,9.80
2023-01-07T22:27:21.412Z,13.03
2023-01-07T22:29:48.836Z,12.50
2023-01-07T22:32:16.182Z,14.97
2023-01-07T22:34:43.582Z,12.37
2023-01-07T22:37:14.126Z,10.57
2023-01-07T22:39:55.698Z,14.13
2023-01-07T22:42:28.443Z,10.13
2023-01-07T22:45:01.789Z,11.40
2023-01-07T22:47:34.998Z,10.07
2023-01-07T22:50:05.828Z,14.93
2023-01-07T22:52:33.452Z,10.60
2023-01-07T22:55:01.130Z,8.87
2023-01-07T22:57:29.726Z,9.90
2023-01-07T22:59:59.128Z,10.77
2023-01-07T23:02:27.375Z,12.83
2023-01-07T23:04:54.827Z,10.27
2023-01-07T23:07:22.262Z,11.43
2023-01-07T23:09:51.515Z,11.50
2023-01-07T23:12:19.014Z,9.90
2023-01-07T23:14:46.433Z,11.03
2023-01-07T23:17:13.805Z,8.73
2023-01-07T23:19:41.237Z,13.63
2023-01-07T23:22:08.604Z,7.63
2023-01-07T23:24:36.804Z,8.90
2023-01-07T23:27:04.334Z,9.20
2023-01-07T23:29:31.671Z,9.80
2023-01-07T23:31:59.616Z,7.27
2023-01-07T23:34:27.168Z,10.17
2023-01-07T23:36:54.486Z,9.83
2023-01-07T23:39:21.881Z,6.93
2023-01-07T23:41:49.295Z,8.90
2023-01-07T23:44:17.725Z,7.53
2023-01-07T23:46:45.813Z,6.57
2023-01-07T23:49:13.284Z,7.77
2023-01-07T23:51:41.493Z,9.37
2023-01-07T23:54:09.373Z,7.70
2023-01-07T23:56:36.728Z,14.33
2023-01-07T23:59:04.148Z,20.07
